sensor_id;sensor_type;location;lat;lon;timestamp;P1;durP1;ratioP1;P2;durP2;ratioP2
16272;SDS011;8244;50.044;9.006;2023-10-31T00:04:20;3.83;;;1.55;;
16272;SDS011;8244;50.044;9.006;2023-10-31T00:09:23;1.42;;;1.30;;
16272;SDS011;8244;50.044;9.006;2023-10-31T00:14:25;1.90;;;1.40;;
16272;SDS011;8244;50.044;9.006;2023-10-31T00:19:27;5.00;;;1.67;;
16272;SDS011;8244;50.044;9.006;2023-10-31T00:24:30;4.63;;;1.30;;
16272;SDS011;8244;50.044;9.006;2023-10-31T00:29:32;3.60;;;1.27;;
16272;SDS011;8244;50.044;9.006;2023-10-31T00:34:33;1.77;;;1.38;;
16272;SDS011;8244;50.044;9.006;2023-10-31T00:39:37;2.47;;;1.20;;
16272;SDS011;8244;50.044;9.006;2023-10-31T00:44:38;1.35;;;1.00;;
16272;SDS011;8244;50.044;9.006;2023-10-31T00:49:40;2.05;;;0.98;;
16272;SDS011;8244;50.044;9.006;2023-10-31T00:54:44;1.58;;;1.10;;
16272;SDS011;8244;50.044;9.006;2023-10-31T00:59:45;1.25;;;1.00;;
16272;SDS011;8244;50.044;9.006;2023-10-31T01:04:47;1.70;;;1.00;;
16272;SDS011;8244;50.044;9.006;2023-10-31T01:09:50;2.58;;;1.10;;
16272;SDS011;8244;50.044;9.006;2023-10-31T01:14:52;3.30;;;1.10;;
16272;SDS011;8244;50.044;9.006;2023-10-31T01:19:53;2.78;;;1.00;;
16272;SDS011;8244;50.044;9.006;2023-10-31T01:24:56;2.63;;;1.20;;
16272;SDS011;8244;50.044;9.006;2023-10-31T01:29:58;2.13;;;1.15;;
16272;SDS011;8244;50.044;9.006;2023-10-31T01:35:00;1.40;;;1.10;;
16272;SDS011;8244;50.044;9.006;2023-10-31T01:40:03;1.52;;;1.15;;
16272;SDS011;8244;50.044;9.006;2023-10-31T01:45:08;0.98;;;0.98;;
16272;SDS011;8244;50.044;9.006;2023-10-31T01:50:09;6.00;;;1.02;;
16272;SDS011;8244;50.044;9.006;2023-10-31T01:55:13;1.05;;;1.05;;
16272;SDS011;8244;50.044;9.006;2023-10-31T02:00:15;1.95;;;1.00;;
16272;SDS011;8244;50.044;9.006;2023-10-31T02:05:17;2.50;;;1.30;;
16272;SDS011;8244;50.044;9.006;2023-10-31T02:10:20;3.03;;;1.20;;
16272;SDS011;8244;50.044;9.006;2023-10-31T02:15:22;2.70;;;1.10;;
16272;SDS011;8244;50.044;9.006;2023-10-31T02:20:23;2.63;;;1.10;;
16272;SDS011;8244;50.044;9.006;2023-10-31T02:25:27;2.10;;;0.98;;
16272;SDS011;8244;50.044;9.006;2023-10-31T02:30:28;6.28;;;1.10;;
16272;SDS011;8244;50.044;9.006;2023-10-31T02:35:31;1.85;;;0.90;;
16272;SDS011;8244;50.044;9.006;2023-10-31T02:40:34;4.25;;;1.73;;
16272;SDS011;8244;50.044;9.006;2023-10-31T02:45:36;2.10;;;0.90;;
16272;SDS011;8244;50.044;9.006;2023-10-31T02:50:38;1.63;;;1.02;;
16272;SDS011;8244;50.044;9.006;2023-10-31T02:55:41;0.90;;;0.90;;
16272;SDS011;8244;50.044;9.006;2023-10-31T03:00:43;2.38;;;0.98;;
16272;SDS011;8244;50.044;9.006;2023-10-31T03:05:44;2.83;;;0.90;;
16272;SDS011;8244;50.044;9.006;2023-10-31T03:10:48;2.40;;;0.80;;
16272;SDS011;8244;50.044;9.006;2023-10-31T03:15:51;3.15;;;1.15;;
16272;SDS011;8244;50.044;9.006;2023-10-31T03:20:53;3.75;;;0.98;;
16272;SDS011;8244;50.044;9.006;2023-10-31T03:25:56;4.40;;;1.52;;
16272;SDS011;8244;50.044;9.006;2023-10-31T03:30:58;1.52;;;1.10;;
16272;SDS011;8244;50.044;9.006;2023-10-31T03:35:59;3.13;;;1.27;;
16272;SDS011;8244;50.044;9.006;2023-10-31T03:41:03;2.58;;;1.02;;
16272;SDS011;8244;50.044;9.006;2023-10-31T03:46:06;4.32;;;1.17;;
16272;SDS011;8244;50.044;9.006;2023-10-31T03:51:07;3.17;;;1.00;;
16272;SDS011;8244;50.044;9.006;2023-10-31T03:56:10;2.95;;;1.15;;
16272;SDS011;8244;50.044;9.006;2023-10-31T04:01:12;2.05;;;1.08;;
16272;SDS011;8244;50.044;9.006;2023-10-31T04:06:14;3.17;;;1.15;;
16272;SDS011;8244;50.044;9.006;2023-10-31T04:11:17;1.38;;;0.98;;
16272;SDS011;8244;50.044;9.006;2023-10-31T04:16:20;2.03;;;1.10;;
16272;SDS011;8244;50.044;9.006;2023-10-31T04:21:21;2.38;;;0.80;;
16272;SDS011;8244;50.044;9.006;2023-10-31T04:26:24;3.25;;;0.90;;
16272;SDS011;8244;50.044;9.006;2023-10-31T04:31:26;2.05;;;1.20;;
16272;SDS011;8244;50.044;9.006;2023-10-31T04:36:28;3.63;;;1.10;;
16272;SDS011;8244;50.044;9.006;2023-10-31T04:41:30;3.15;;;1.17;;
16272;SDS011;8244;50.044;9.006;2023-10-31T04:46:32;1.50;;;1.23;;
16272;SDS011;8244;50.044;9.006;2023-10-31T04:51:34;3.05;;;1.45;;
16272;SDS011;8244;50.044;9.006;2023-10-31T04:56:38;4.55;;;1.80;;
16272;SDS011;8244;50.044;9.006;2023-10-31T05:01:39;2.35;;;1.23;;
16272;SDS011;8244;50.044;9.006;2023-10-31T05:06:41;2.70;;;1.45;;
16272;SDS011;8244;50.044;9.006;2023-10-31T05:11:44;1.98;;;1.33;;
16272;SDS011;8244;50.044;9.006;2023-10-31T05:16:46;3.28;;;1.27;;
16272;SDS011;8244;50.044;9.006;2023-10-31T05:21:47;2.20;;;1.30;;
16272;SDS011;8244;50.044;9.006;2023-10-31T05:26:50;2.80;;;1.25;;
16272;SDS011;8244;50.044;9.006;2023-10-31T05:31:52;1.23;;;1.10;;
16272;SDS011;8244;50.044;9.006;2023-10-31T05:36:54;1.60;;;1.35;;
16272;SDS011;8244;50.044;9.006;2023-10-31T05:41:56;1.77;;;1.15;;
16272;SDS011;8244;50.044;9.006;2023-10-31T05:46:58;3.38;;;1.30;;
16272;SDS011;8244;50.044;9.006;2023-10-31T05:52:00;3.55;;;1.45;;
16272;SDS011;8244;50.044;9.006;2023-10-31T05:57:03;4.75;;;1.27;;
16272;SDS011;8244;50.044;9.006;2023-10-31T06:02:05;2.05;;;1.02;;
16272;SDS011;8244;50.044;9.006;2023-10-31T06:07:07;1.45;;;1.15;;
16272;SDS011;8244;50.044;9.006;2023-10-31T06:12:10;5.97;;;1.73;;
16272;SDS011;8244;50.044;9.006;2023-10-31T06:17:11;7.15;;;1.60;;
16272;SDS011;8244;50.044;9.006;2023-10-31T06:22:13;2.53;;;0.95;;
16272;SDS011;8244;50.044;9.006;2023-10-31T06:27:16;2.15;;;1.08;;
16272;SDS011;8244;50.044;9.006;2023-10-31T06:32:18;2.28;;;1.30;;
16272;SDS011;8244;50.044;9.006;2023-10-31T06:37:20;5.70;;;1.38;;
16272;SDS011;8244;50.044;9.006;2023-10-31T06:42:23;2.17;;;1.30;;
16272;SDS011;8244;50.044;9.006;2023-10-31T06:47:25;4.68;;;1.02;;
16272;SDS011;8244;50.044;9.006;2023-10-31T06:52:27;3.20;;;1.05;;
16272;SDS011;8244;50.044;9.006;2023-10-31T06:57:30;3.25;;;0.93;;
16272;SDS011;8244;50.044;9.006;2023-10-31T07:02:32;2.13;;;1.13;;
16272;SDS011;8244;50.044;9.006;2023-10-31T07:07:34;2.15;;;1.15;;
16272;SDS011;8244;50.044;9.006;2023-10-31T07:12:37;4.20;;;0.98;;
16272;SDS011;8244;50.044;9.006;2023-10-31T07:17:43;2.47;;;1.23;;
16272;SDS011;8244;50.044;9.006;2023-10-31T07:22:45;2.72;;;1.10;;
16272;SDS011;8244;50.044;9.006;2023-10-31T07:27:48;4.25;;;1.45;;
16272;SDS011;8244;50.044;9.006;2023-10-31T07:32:50;2.80;;;1.15;;
16272;SDS011;8244;50.044;9.006;2023-10-31T07:37:51;1.08;;;1.02;;
16272;SDS011;8244;50.044;9.006;2023-10-31T07:42:55;2.00;;;1.30;;
16272;SDS011;8244;50.044;9.006;2023-10-31T07:47:56;1.60;;;1.50;;
16272;SDS011;8244;50.044;9.006;2023-10-31T07:52:58;1.73;;;0.93;;
16272;SDS011;8244;50.044;9.006;2023-10-31T07:58:01;4.22;;;1.38;;
16272;SDS011;8244;50.044;9.006;2023-10-31T08:03:02;7.72;;;1.27;;
16272;SDS011;8244;50.044;9.006;2023-10-31T08:08:04;4.13;;;2.28;;
16272;SDS011;8244;50.044;9.006;2023-10-31T08:13:07;2.17;;;1.25;;
16272;SDS011;8244;50.044;9.006;2023-10-31T08:18:09;2.72;;;1.30;;
16272;SDS011;8244;50.044;9.006;2023-10-31T08:23:11;2.42;;;1.30;;
16272;SDS011;8244;50.044;9.006;2023-10-31T08:28:15;5.00;;;1.48;;
16272;SDS011;8244;50.044;9.006;2023-10-31T08:33:17;1.65;;;1.10;;
16272;SDS011;8244;50.044;9.006;2023-10-31T08:38:19;1.58;;;1.00;;
16272;SDS011;8244;50.044;9.006;2023-10-31T08:43:22;2.08;;;1.17;;
16272;SDS011;8244;50.044;9.006;2023-10-31T08:48:24;3.25;;;1.08;;
16272;SDS011;8244;50.044;9.006;2023-10-31T08:53:26;5.38;;;1.60;;
16272;SDS011;8244;50.044;9.006;2023-10-31T08:58:29;1.83;;;1.30;;
16272;SDS011;8244;50.044;9.006;2023-10-31T09:03:31;4.05;;;1.38;;
16272;SDS011;8244;50.044;9.006;2023-10-31T09:08:35;3.17;;;1.70;;
16272;SDS011;8244;50.044;9.006;2023-10-31T09:13:38;4.22;;;2.30;;
16272;SDS011;8244;50.044;9.006;2023-10-31T09:18:40;2.47;;;1.30;;
16272;SDS011;8244;50.044;9.006;2023-10-31T09:23:43;4.68;;;1.80;;
16272;SDS011;8244;50.044;9.006;2023-10-31T09:28:46;3.83;;;2.00;;
16272;SDS011;8244;50.044;9.006;2023-10-31T09:33:49;3.72;;;1.90;;
16272;SDS011;8244;50.044;9.006;2023-10-31T09:38:51;3.70;;;1.20;;
16272;SDS011;8244;50.044;9.006;2023-10-31T09:43:54;1.85;;;1.20;;
16272;SDS011;8244;50.044;9.006;2023-10-31T09:48:56;1.75;;;1.00;;
16272;SDS011;8244;50.044;9.006;2023-10-31T09:53:58;4.43;;;1.70;;
16272;SDS011;8244;50.044;9.006;2023-10-31T09:59:05;4.72;;;1.88;;
16272;SDS011;8244;50.044;9.006;2023-10-31T10:04:06;1.02;;;0.95;;
16272;SDS011;8244;50.044;9.006;2023-10-31T10:09:08;2.58;;;1.30;;
16272;SDS011;8244;50.044;9.006;2023-10-31T10:14:12;2.75;;;1.50;;
16272;SDS011;8244;50.044;9.006;2023-10-31T10:19:14;5.85;;;1.50;;
16272;SDS011;8244;50.044;9.006;2023-10-31T10:24:19;3.72;;;1.10;;
16272;SDS011;8244;50.044;9.006;2023-10-31T10:29:23;4.10;;;1.30;;
16272;SDS011;8244;50.044;9.006;2023-10-31T10:34:26;4.50;;;1.45;;
16272;SDS011;8244;50.044;9.006;2023-10-31T10:39:28;4.30;;;1.55;;
16272;SDS011;8244;50.044;9.006;2023-10-31T10:44:35;2.60;;;1.20;;
16272;SDS011;8244;50.044;9.006;2023-10-31T10:49:38;0.95;;;0.80;;
16272;SDS011;8244;50.044;9.006;2023-10-31T10:54:44;2.53;;;1.70;;
16272;SDS011;8244;50.044;9.006;2023-10-31T10:59:53;3.40;;;1.20;;
16272;SDS011;8244;50.044;9.006;2023-10-31T11:04:59;2.97;;;1.20;;
16272;SDS011;8244;50.044;9.006;2023-10-31T11:10:01;2.22;;;1.05;;
16272;SDS011;8244;50.044;9.006;2023-10-31T11:15:07;3.53;;;1.20;;
16272;SDS011;8244;50.044;9.006;2023-10-31T11:20:13;2.42;;;1.40;;
16272;SDS011;8244;50.044;9.006;2023-10-31T11:25:18;4.40;;;1.13;;
16272;SDS011;8244;50.044;9.006;2023-10-31T11:30:22;5.10;;;1.38;;
16272;SDS011;8244;50.044;9.006;2023-10-31T11:35:29;4.57;;;2.13;;
16272;SDS011;8244;50.044;9.006;2023-10-31T11:40:31;4.15;;;1.20;;
16272;SDS011;8244;50.044;9.006;2023-10-31T11:45:35;2.20;;;1.30;;
16272;SDS011;8244;50.044;9.006;2023-10-31T11:50:37;5.47;;;1.80;;
16272;SDS011;8244;50.044;9.006;2023-10-31T11:55:40;2.58;;;1.30;;
16272;SDS011;8244;50.044;9.006;2023-10-31T12:00:45;2.65;;;1.30;;
16272;SDS011;8244;50.044;9.006;2023-10-31T12:05:52;4.90;;;1.70;;
16272;SDS011;8244;50.044;9.006;2023-10-31T12:11:02;6.10;;;1.40;;
16272;SDS011;8244;50.044;9.006;2023-10-31T12:16:09;2.92;;;1.70;;
16272;SDS011;8244;50.044;9.006;2023-10-31T12:21:12;4.55;;;2.40;;
16272;SDS011;8244;50.044;9.006;2023-10-31T12:26:20;1.20;;;1.08;;
16272;SDS011;8244;50.044;9.006;2023-10-31T12:31:23;2.08;;;1.60;;
16272;SDS011;8244;50.044;9.006;2023-10-31T12:36:26;6.65;;;2.75;;
16272;SDS011;8244;50.044;9.006;2023-10-31T12:41:28;4.15;;;1.75;;
16272;SDS011;8244;50.044;9.006;2023-10-31T12:46:32;3.47;;;1.38;;
16272;SDS011;8244;50.044;9.006;2023-10-31T12:51:54;4.20;;;2.05;;
16272;SDS011;8244;50.044;9.006;2023-10-31T12:56:58;4.07;;;1.30;;
16272;SDS011;8244;50.044;9.006;2023-10-31T13:02:02;5.22;;;2.30;;
16272;SDS011;8244;50.044;9.006;2023-10-31T13:07:05;4.75;;;1.33;;
16272;SDS011;8244;50.044;9.006;2023-10-31T13:12:08;7.32;;;2.25;;
16272;SDS011;8244;50.044;9.006;2023-10-31T13:17:12;5.93;;;2.17;;
16272;SDS011;8244;50.044;9.006;2023-10-31T13:22:14;9.75;;;2.67;;
16272;SDS011;8244;50.044;9.006;2023-10-31T13:27:16;4.28;;;1.42;;
16272;SDS011;8244;50.044;9.006;2023-10-31T13:32:19;4.55;;;1.70;;
16272;SDS011;8244;50.044;9.006;2023-10-31T13:37:21;5.47;;;2.10;;
16272;SDS011;8244;50.044;9.006;2023-10-31T13:42:23;8.65;;;3.25;;
16272;SDS011;8244;50.044;9.006;2023-10-31T13:47:27;3.97;;;2.08;;
16272;SDS011;8244;50.044;9.006;2023-10-31T13:52:29;5.10;;;1.70;;
16272;SDS011;8244;50.044;9.006;2023-10-31T13:57:31;3.10;;;1.55;;
16272;SDS011;8244;50.044;9.006;2023-10-31T14:02:34;3.67;;;1.58;;
16272;SDS011;8244;50.044;9.006;2023-10-31T14:07:36;4.10;;;2.33;;
16272;SDS011;8244;50.044;9.006;2023-10-31T14:12:38;4.50;;;1.60;;
16272;SDS011;8244;50.044;9.006;2023-10-31T14:17:41;6.22;;;1.65;;
16272;SDS011;8244;50.044;9.006;2023-10-31T14:22:46;4.40;;;1.90;;
16272;SDS011;8244;50.044;9.006;2023-10-31T14:27:49;4.50;;;1.63;;
16272;SDS011;8244;50.044;9.006;2023-10-31T14:32:52;4.82;;;1.48;;
16272;SDS011;8244;50.044;9.006;2023-10-31T14:37:54;5.50;;;1.40;;
16272;SDS011;8244;50.044;9.006;2023-10-31T14:42:55;7.45;;;1.70;;
16272;SDS011;8244;50.044;9.006;2023-10-31T14:47:58;3.78;;;1.55;;
16272;SDS011;8244;50.044;9.006;2023-10-31T14:53:00;2.90;;;1.30;;
16272;SDS011;8244;50.044;9.006;2023-10-31T14:58:02;4.18;;;1.60;;
16272;SDS011;8244;50.044;9.006;2023-10-31T15:03:05;4.85;;;1.60;;
16272;SDS011;8244;50.044;9.006;2023-10-31T15:08:07;5.25;;;2.70;;
16272;SDS011;8244;50.044;9.006;2023-10-31T15:13:09;5.97;;;2.10;;
16272;SDS011;8244;50.044;9.006;2023-10-31T15:18:12;6.25;;;1.67;;
16272;SDS011;8244;50.044;9.006;2023-10-31T15:23:14;6.82;;;2.00;;
16272;SDS011;8244;50.044;9.006;2023-10-31T15:28:15;8.30;;;2.88;;
16272;SDS011;8244;50.044;9.006;2023-10-31T15:33:18;7.82;;;2.88;;
16272;SDS011;8244;50.044;9.006;2023-10-31T15:38:20;5.22;;;1.98;;
16272;SDS011;8244;50.044;9.006;2023-10-31T15:43:22;3.75;;;1.73;;
16272;SDS011;8244;50.044;9.006;2023-10-31T15:48:25;3.30;;;1.40;;
16272;SDS011;8244;50.044;9.006;2023-10-31T15:53:26;5.47;;;1.50;;
16272;SDS011;8244;50.044;9.006;2023-10-31T15:58:29;5.38;;;1.85;;
16272;SDS011;8244;50.044;9.006;2023-10-31T16:03:32;5.15;;;1.88;;
16272;SDS011;8244;50.044;9.006;2023-10-31T16:08:34;5.43;;;2.10;;
16272;SDS011;8244;50.044;9.006;2023-10-31T16:13:39;5.18;;;2.08;;
16272;SDS011;8244;50.044;9.006;2023-10-31T16:18:45;9.80;;;3.47;;
16272;SDS011;8244;50.044;9.006;2023-10-31T16:23:47;7.85;;;2.50;;
16272;SDS011;8244;50.044;9.006;2023-10-31T16:28:50;6.22;;;2.20;;
16272;SDS011;8244;50.044;9.006;2023-10-31T16:33:54;3.90;;;2.20;;
16272;SDS011;8244;50.044;9.006;2023-10-31T16:38:55;5.97;;;2.53;;
16272;SDS011;8244;50.044;9.006;2023-10-31T16:43:57;8.02;;;2.70;;
16272;SDS011;8244;50.044;9.006;2023-10-31T16:49:00;8.68;;;2.97;;
16272;SDS011;8244;50.044;9.006;2023-10-31T16:54:02;6.82;;;2.95;;
16272;SDS011;8244;50.044;9.006;2023-10-31T16:59:04;4.85;;;2.83;;
16272;SDS011;8244;50.044;9.006;2023-10-31T17:04:07;7.85;;;2.50;;
16272;SDS011;8244;50.044;9.006;2023-10-31T17:09:09;7.72;;;3.05;;
16272;SDS011;8244;50.044;9.006;2023-10-31T17:14:10;7.65;;;3.20;;
16272;SDS011;8244;50.044;9.006;2023-10-31T17:19:13;8.65;;;2.67;;
16272;SDS011;8244;50.044;9.006;2023-10-31T17:24:15;5.88;;;2.88;;
16272;SDS011;8244;50.044;9.006;2023-10-31T17:29:17;4.35;;;2.28;;
16272;SDS011;8244;50.044;9.006;2023-10-31T17:34:20;6.90;;;2.85;;
16272;SDS011;8244;50.044;9.006;2023-10-31T17:39:21;6.22;;;2.63;;
16272;SDS011;8244;50.044;9.006;2023-10-31T17:44:23;8.07;;;2.83;;
16272;SDS011;8244;50.044;9.006;2023-10-31T17:49:29;7.53;;;2.50;;
16272;SDS011;8244;50.044;9.006;2023-10-31T17:54:30;9.20;;;2.58;;
16272;SDS011;8244;50.044;9.006;2023-10-31T17:59:32;6.43;;;2.70;;
16272;SDS011;8244;50.044;9.006;2023-10-31T18:04:35;9.10;;;3.78;;
16272;SDS011;8244;50.044;9.006;2023-10-31T18:09:36;6.18;;;2.60;;
16272;SDS011;8244;50.044;9.006;2023-10-31T18:14:38;6.18;;;2.58;;
16272;SDS011;8244;50.044;9.006;2023-10-31T18:19:41;10.07;;;2.70;;
16272;SDS011;8244;50.044;9.006;2023-10-31T18:24:44;6.60;;;2.67;;
16272;SDS011;8244;50.044;9.006;2023-10-31T18:29:49;6.13;;;2.30;;
16272;SDS011;8244;50.044;9.006;2023-10-31T18:34:53;7.38;;;2.25;;
16272;SDS011;8244;50.044;9.006;2023-10-31T18:39:55;6.13;;;3.20;;
16272;SDS011;8244;50.044;9.006;2023-10-31T18:44:57;6.47;;;3.42;;
16272;SDS011;8244;50.044;9.006;2023-10-31T18:50:00;5.70;;;2.33;;
16272;SDS011;8244;50.044;9.006;2023-10-31T18:55:02;7.32;;;2.90;;
16272;SDS011;8244;50.044;9.006;2023-10-31T19:00:04;7.40;;;2.30;;
16272;SDS011;8244;50.044;9.006;2023-10-31T19:05:09;6.45;;;2.40;;
16272;SDS011;8244;50.044;9.006;2023-10-31T19:10:10;5.70;;;2.35;;
16272;SDS011;8244;50.044;9.006;2023-10-31T19:15:12;6.47;;;2.20;;
16272;SDS011;8244;50.044;9.006;2023-10-31T19:20:15;6.05;;;2.30;;
16272;SDS011;8244;50.044;9.006;2023-10-31T19:25:17;6.50;;;2.00;;
16272;SDS011;8244;50.044;9.006;2023-10-31T19:30:19;6.43;;;2.00;;
16272;SDS011;8244;50.044;9.006;2023-10-31T19:35:22;5.80;;;2.08;;
16272;SDS011;8244;50.044;9.006;2023-10-31T19:40:23;4.60;;;1.92;;
16272;SDS011;8244;50.044;9.006;2023-10-31T19:45:27;9.65;;;2.70;;
16272;SDS011;8244;50.044;9.006;2023-10-31T19:50:31;5.38;;;2.20;;
16272;SDS011;8244;50.044;9.006;2023-10-31T19:55:32;8.07;;;2.33;;
16272;SDS011;8244;50.044;9.006;2023-10-31T20:00:34;6.85;;;2.15;;
16272;SDS011;8244;50.044;9.006;2023-10-31T20:05:37;6.18;;;2.22;;
16272;SDS011;8244;50.044;9.006;2023-10-31T20:10:40;5.80;;;2.42;;
16272;SDS011;8244;50.044;9.006;2023-10-31T20:15:42;5.88;;;2.20;;
16272;SDS011;8244;50.044;9.006;2023-10-31T20:20:45;5.22;;;2.22;;
16272;SDS011;8244;50.044;9.006;2023-10-31T20:25:46;4.93;;;2.45;;
16272;SDS011;8244;50.044;9.006;2023-10-31T20:30:49;4.43;;;1.98;;
16272;SDS011;8244;50.044;9.006;2023-10-31T20:35:52;5.43;;;2.33;;
16272;SDS011;8244;50.044;9.006;2023-10-31T20:40:54;4.40;;;1.88;;
16272;SDS011;8244;50.044;9.006;2023-10-31T20:45:55;6.25;;;2.30;;
16272;SDS011;8244;50.044;9.006;2023-10-31T20:50:58;3.47;;;1.70;;
16272;SDS011;8244;50.044;9.006;2023-10-31T20:56:00;5.78;;;1.85;;
16272;SDS011;8244;50.044;9.006;2023-10-31T21:01:03;3.70;;;2.13;;
16272;SDS011;8244;50.044;9.006;2023-10-31T21:06:06;7.88;;;1.67;;
16272;SDS011;8244;50.044;9.006;2023-10-31T21:11:09;4.32;;;1.90;;
16272;SDS011;8244;50.044;9.006;2023-10-31T21:16:10;3.30;;;1.83;;
16272;SDS011;8244;50.044;9.006;2023-10-31T21:21:13;6.10;;;2.80;;
16272;SDS011;8244;50.044;9.006;2023-10-31T21:26:15;6.55;;;2.00;;
16272;SDS011;8244;50.044;9.006;2023-10-31T21:31:17;5.65;;;1.90;;
16272;SDS011;8244;50.044;9.006;2023-10-31T21:36:20;5.10;;;1.80;;
16272;SDS011;8244;50.044;9.006;2023-10-31T21:41:22;3.33;;;1.60;;
16272;SDS011;8244;50.044;9.006;2023-10-31T21:46:24;5.53;;;1.65;;
16272;SDS011;8244;50.044;9.006;2023-10-31T21:51:27;6.90;;;2.47;;
16272;SDS011;8244;50.044;9.006;2023-10-31T21:56:30;3.65;;;1.45;;
16272;SDS011;8244;50.044;9.006;2023-10-31T22:01:31;3.97;;;1.70;;
16272;SDS011;8244;50.044;9.006;2023-10-31T22:06:34;3.88;;;1.70;;
16272;SDS011;8244;50.044;9.006;2023-10-31T22:11:36;4.15;;;1.70;;
16272;SDS011;8244;50.044;9.006;2023-10-31T22:16:38;7.00;;;1.77;;
16272;SDS011;8244;50.044;9.006;2023-10-31T22:21:41;3.83;;;1.70;;
16272;SDS011;8244;50.044;9.006;2023-10-31T22:26:42;4.22;;;1.88;;
16272;SDS011;8244;50.044;9.006;2023-10-31T22:31:44;5.75;;;1.70;;
16272;SDS011;8244;50.044;9.006;2023-10-31T22:36:48;5.88;;;1.70;;
16272;SDS011;8244;50.044;9.006;2023-10-31T22:41:54;4.65;;;1.63;;
16272;SDS011;8244;50.044;9.006;2023-10-31T22:46:55;6.07;;;1.70;;
16272;SDS011;8244;50.044;9.006;2023-10-31T22:51:58;5.25;;;1.70;;
16272;SDS011;8244;50.044;9.006;2023-10-31T22:57:00;3.30;;;1.65;;
16272;SDS011;8244;50.044;9.006;2023-10-31T23:02:02;4.45;;;1.40;;
16272;SDS011;8244;50.044;9.006;2023-10-31T23:07:05;4.70;;;1.85;;
16272;SDS011;8244;50.044;9.006;2023-10-31T23:12:08;4.18;;;1.65;;
16272;SDS011;8244;50.044;9.006;2023-10-31T23:17:10;4.45;;;1.80;;
16272;SDS011;8244;50.044;9.006;2023-10-31T23:22:13;3.75;;;1.73;;
16272;SDS011;8244;50.044;9.006;2023-10-31T23:27:15;7.05;;;1.98;;
16272;SDS011;8244;50.044;9.006;2023-10-31T23:32:16;6.35;;;2.30;;
16272;SDS011;8244;50.044;9.006;2023-10-31T23:37:19;4.70;;;1.92;;
16272;SDS011;8244;50.044;9.006;2023-10-31T23:42:22;3.50;;;1.80;;
16272;SDS011;8244;50.044;9.006;2023-10-31T23:47:24;4.40;;;1.80;;
16272;SDS011;8244;50.044;9.006;2023-10-31T23:52:30;4.85;;;1.80;;
16272;SDS011;8244;50.044;9.006;2023-10-31T23:57:32;7.72;;;2.10;;
